sensor_id;sensor_type;location;lat;lon;timestamp;temperature;humidity
52044;DHT22;38053;53.100;6.078;2023-08-30T00:00:39;13.70;99.90
52044;DHT22;38053;53.100;6.078;2023-08-30T00:03:05;13.80;99.90
52044;DHT22;38053;53.100;6.078;2023-08-30T00:05:32;13.80;99.90
52044;DHT22;38053;53.100;6.078;2023-08-30T00:07:57;13.80;99.90
52044;DHT22;38053;53.100;6.078;2023-08-30T00:10:23;13.80;99.90
52044;DHT22;38053;53.100;6.078;2023-08-30T00:12:49;13.80;99.90
52044;DHT22;38053;53.100;6.078;2023-08-30T00:15:15;13.80;99.90
52044;DHT22;38053;53.100;6.078;2023-08-30T00:17:41;13.80;99.90
52044;DHT22;38053;53.100;6.078;2023-08-30T00:20:07;13.70;99.90
52044;DHT22;38053;53.100;6.078;2023-08-30T00:22:34;13.70;99.90
52044;DHT22;38053;53.100;6.078;2023-08-30T00:25:01;13.70;99.90
52044;DHT22;38053;53.100;6.078;2023-08-30T00:27:27;13.60;99.90
52044;DHT22;38053;53.100;6.078;2023-08-30T00:29:52;13.60;99.90
52044;DHT22;38053;53.100;6.078;2023-08-30T00:32:18;13.50;99.90
52044;DHT22;38053;53.100;6.078;2023-08-30T00:34:44;13.50;99.90
52044;DHT22;38053;53.100;6.078;2023-08-30T00:37:10;13.50;99.90
52044;DHT22;38053;53.100;6.078;2023-08-30T00:39:38;13.50;99.90
52044;DHT22;38053;53.100;6.078;2023-08-30T00:42:05;13.50;99.90
52044;DHT22;38053;53.100;6.078;2023-08-30T00:44:33;13.40;99.90
52044;DHT22;38053;53.100;6.078;2023-08-30T00:47:03;13.40;99.90
52044;DHT22;38053;53.100;6.078;2023-08-30T00:49:30;13.40;99.90
52044;DHT22;38053;53.100;6.078;2023-08-30T00:52:01;13.40;99.90
52044;DHT22;38053;53.100;6.078;2023-08-30T00:54:30;13.40;99.90
52044;DHT22;38053;53.100;6.078;2023-08-30T00:56:56;13.40;99.90
52044;DHT22;38053;53.100;6.078;2023-08-30T00:59:23;13.40;99.90
52044;DHT22;38053;53.100;6.078;2023-08-30T01:01:49;13.40;99.90
52044;DHT22;38053;53.100;6.078;2023-08-30T01:04:15;13.40;99.90
52044;DHT22;38053;53.100;6.078;2023-08-30T01:06:41;13.40;99.90
52044;DHT22;38053;53.100;6.078;2023-08-30T01:09:08;13.40;99.90
52044;DHT22;38053;53.100;6.078;2023-08-30T01:14:25;13.30;99.90
52044;DHT22;38053;53.100;6.078;2023-08-30T01:16:54;13.30;99.90
52044;DHT22;38053;53.100;6.078;2023-08-30T01:19:27;13.30;99.90
52044;DHT22;38053;53.100;6.078;2023-08-30T01:22:12;13.30;99.90
52044;DHT22;38053;53.100;6.078;2023-08-30T01:25:00;13.30;99.90
52044;DHT22;38053;53.100;6.078;2023-08-30T01:27:34;13.30;99.90
52044;DHT22;38053;53.100;6.078;2023-08-30T01:30:02;13.20;99.90
52044;DHT22;38053;53.100;6.078;2023-08-30T01:32:31;13.20;99.90
52044;DHT22;38053;53.100;6.078;2023-08-30T01:34:59;13.20;99.90
52044;DHT22;38053;53.100;6.078;2023-08-30T01:37:26;13.10;99.90
52044;DHT22;38053;53.100;6.078;2023-08-30T01:39:54;13.10;99.90
52044;DHT22;38053;53.100;6.078;2023-08-30T01:42:25;13.00;99.90
52044;DHT22;38053;53.100;6.078;2023-08-30T01:44:56;13.00;99.90
52044;DHT22;38053;53.100;6.078;2023-08-30T01:47:27;13.00;99.90
52044;DHT22;38053;53.100;6.078;2023-08-30T01:49:54;12.90;99.90
52044;DHT22;38053;53.100;6.078;2023-08-30T01:52:22;12.80;99.90
52044;DHT22;38053;53.100;6.078;2023-08-30T01:54:48;12.80;99.90
52044;DHT22;38053;53.100;6.078;2023-08-30T01:57:14;12.80;99.90
52044;DHT22;38053;53.100;6.078;2023-08-30T01:59:40;12.70;99.90
52044;DHT22;38053;53.100;6.078;2023-08-30T02:02:06;12.70;99.90
52044;DHT22;38053;53.100;6.078;2023-08-30T02:04:31;12.60;99.90
52044;DHT22;38053;53.100;6.078;2023-08-30T02:07:03;12.60;99.90
52044;DHT22;38053;53.100;6.078;2023-08-30T02:12:37;12.50;99.90
52044;DHT22;38053;53.100;6.078;2023-08-30T02:15:07;12.50;99.90
52044;DHT22;38053;53.100;6.078;2023-08-30T02:17:35;12.50;99.90
52044;DHT22;38053;53.100;6.078;2023-08-30T02:20:01;12.50;99.90
52044;DHT22;38053;53.100;6.078;2023-08-30T02:22:30;12.40;99.90
52044;DHT22;38053;53.100;6.078;2023-08-30T02:24:55;12.40;99.90
52044;DHT22;38053;53.100;6.078;2023-08-30T02:27:21;12.40;99.90
52044;DHT22;38053;53.100;6.078;2023-08-30T02:29:47;12.40;99.90
52044;DHT22;38053;53.100;6.078;2023-08-30T02:32:12;12.30;99.90
52044;DHT22;38053;53.100;6.078;2023-08-30T02:34:38;12.30;99.90
52044;DHT22;38053;53.100;6.078;2023-08-30T02:37:04;12.30;99.90
52044;DHT22;38053;53.100;6.078;2023-08-30T02:39:30;12.30;99.90
52044;DHT22;38053;53.100;6.078;2023-08-30T02:41:57;12.30;99.90
52044;DHT22;38053;53.100;6.078;2023-08-30T02:44:23;12.20;99.90
52044;DHT22;38053;53.100;6.078;2023-08-30T02:46:49;12.20;99.90
52044;DHT22;38053;53.100;6.078;2023-08-30T02:49:14;12.20;99.90
52044;DHT22;38053;53.100;6.078;2023-08-30T02:51:40;12.20;99.90
52044;DHT22;38053;53.100;6.078;2023-08-30T02:54:07;12.10;99.90
52044;DHT22;38053;53.100;6.078;2023-08-30T02:56:34;12.10;99.90
52044;DHT22;38053;53.100;6.078;2023-08-30T02:58:59;12.10;99.90
52044;DHT22;38053;53.100;6.078;2023-08-30T03:01:25;12.10;99.90
52044;DHT22;38053;53.100;6.078;2023-08-30T03:03:51;12.10;99.90
52044;DHT22;38053;53.100;6.078;2023-08-30T03:06:16;12.10;99.90
52044;DHT22;38053;53.100;6.078;2023-08-30T03:08:42;12.10;99.90
52044;DHT22;38053;53.100;6.078;2023-08-30T03:11:12;12.10;99.90
52044;DHT22;38053;53.100;6.078;2023-08-30T03:13:38;12.10;99.90
52044;DHT22;38053;53.100;6.078;2023-08-30T03:16:13;12.20;99.90
52044;DHT22;38053;53.100;6.078;2023-08-30T03:18:40;12.20;99.90
52044;DHT22;38053;53.100;6.078;2023-08-30T03:21:06;12.20;99.90
52044;DHT22;38053;53.100;6.078;2023-08-30T03:23:32;12.30;99.90
52044;DHT22;38053;53.100;6.078;2023-08-30T03:25:59;12.20;99.90
52044;DHT22;38053;53.100;6.078;2023-08-30T03:28:25;12.30;99.90
52044;DHT22;38053;53.100;6.078;2023-08-30T03:30:55;12.30;99.90
52044;DHT22;38053;53.100;6.078;2023-08-30T03:33:21;12.40;99.90
52044;DHT22;38053;53.100;6.078;2023-08-30T03:35:47;12.40;99.90
52044;DHT22;38053;53.100;6.078;2023-08-30T03:38:12;12.40;99.90
52044;DHT22;38053;53.100;6.078;2023-08-30T03:40:39;12.50;99.90
52044;DHT22;38053;53.100;6.078;2023-08-30T03:43:05;12.50;99.90
52044;DHT22;38053;53.100;6.078;2023-08-30T03:45:37;12.50;99.90
52044;DHT22;38053;53.100;6.078;2023-08-30T03:48:04;12.60;99.90
52044;DHT22;38053;53.100;6.078;2023-08-30T03:50:30;12.60;99.90
52044;DHT22;38053;53.100;6.078;2023-08-30T03:52:55;12.60;99.90
52044;DHT22;38053;53.100;6.078;2023-08-30T03:55:22;12.70;99.90
52044;DHT22;38053;53.100;6.078;2023-08-30T03:57:48;12.70;99.90
52044;DHT22;38053;53.100;6.078;2023-08-30T04:00:14;12.70;99.90
52044;DHT22;38053;53.100;6.078;2023-08-30T04:02:40;12.80;99.90
52044;DHT22;38053;53.100;6.078;2023-08-30T04:05:06;12.80;99.90
52044;DHT22;38053;53.100;6.078;2023-08-30T04:07:35;12.80;99.90
52044;DHT22;38053;53.100;6.078;2023-08-30T04:10:05;12.80;99.90
52044;DHT22;38053;53.100;6.078;2023-08-30T04:12:33;12.90;99.90
52044;DHT22;38053;53.100;6.078;2023-08-30T04:15:03;12.90;99.90
52044;DHT22;38053;53.100;6.078;2023-08-30T04:17:28;12.90;99.90
52044;DHT22;38053;53.100;6.078;2023-08-30T04:19:55;12.90;99.90
52044;DHT22;38053;53.100;6.078;2023-08-30T04:22:21;13.00;99.90
52044;DHT22;38053;53.100;6.078;2023-08-30T04:24:47;12.90;99.90
52044;DHT22;38053;53.100;6.078;2023-08-30T04:27:12;13.00;99.90
52044;DHT22;38053;53.100;6.078;2023-08-30T04:29:38;13.00;99.90
52044;DHT22;38053;53.100;6.078;2023-08-30T04:32:04;13.00;99.90
52044;DHT22;38053;53.100;6.078;2023-08-30T04:34:30;13.00;99.90
52044;DHT22;38053;53.100;6.078;2023-08-30T04:36:56;13.00;99.90
52044;DHT22;38053;53.100;6.078;2023-08-30T04:39:22;13.10;99.90
52044;DHT22;38053;53.100;6.078;2023-08-30T04:41:48;13.10;99.90
52044;DHT22;38053;53.100;6.078;2023-08-30T04:44:14;13.10;99.90
52044;DHT22;38053;53.100;6.078;2023-08-30T04:46:39;13.10;99.90
52044;DHT22;38053;53.100;6.078;2023-08-30T04:49:05;13.10;99.90
52044;DHT22;38053;53.100;6.078;2023-08-30T04:51:31;13.20;99.90
52044;DHT22;38053;53.100;6.078;2023-08-30T04:53:57;13.20;99.90
52044;DHT22;38053;53.100;6.078;2023-08-30T04:56:23;13.20;99.90
52044;DHT22;38053;53.100;6.078;2023-08-30T04:58:49;13.20;99.90
52044;DHT22;38053;53.100;6.078;2023-08-30T05:01:15;13.30;99.90
52044;DHT22;38053;53.100;6.078;2023-08-30T05:03:42;13.30;99.90
52044;DHT22;38053;53.100;6.078;2023-08-30T05:06:07;13.30;99.90
52044;DHT22;38053;53.100;6.078;2023-08-30T05:08:33;13.30;99.90
52044;DHT22;38053;53.100;6.078;2023-08-30T05:10:59;13.30;99.90
52044;DHT22;38053;53.100;6.078;2023-08-30T05:13:25;13.30;99.90
52044;DHT22;38053;53.100;6.078;2023-08-30T05:15:50;13.40;99.90
52044;DHT22;38053;53.100;6.078;2023-08-30T05:18:18;13.40;99.90
52044;DHT22;38053;53.100;6.078;2023-08-30T05:20:44;13.40;99.90
52044;DHT22;38053;53.100;6.078;2023-08-30T05:23:09;13.40;99.90
52044;DHT22;38053;53.100;6.078;2023-08-30T05:25:35;13.40;99.90
52044;DHT22;38053;53.100;6.078;2023-08-30T05:28:01;13.40;99.90
52044;DHT22;38053;53.100;6.078;2023-08-30T05:30:26;13.50;99.90
52044;DHT22;38053;53.100;6.078;2023-08-30T05:32:52;13.50;99.90
52044;DHT22;38053;53.100;6.078;2023-08-30T05:35:18;13.50;99.90
52044;DHT22;38053;53.100;6.078;2023-08-30T05:37:44;13.50;99.90
52044;DHT22;38053;53.100;6.078;2023-08-30T05:40:10;13.50;99.90
52044;DHT22;38053;53.100;6.078;2023-08-30T05:42:36;13.50;99.90
52044;DHT22;38053;53.100;6.078;2023-08-30T05:45:02;13.50;99.90
52044;DHT22;38053;53.100;6.078;2023-08-30T05:47:28;13.60;99.90
52044;DHT22;38053;53.100;6.078;2023-08-30T05:49:54;13.60;99.90
52044;DHT22;38053;53.100;6.078;2023-08-30T05:52:20;13.60;99.90
52044;DHT22;38053;53.100;6.078;2023-08-30T05:54:46;13.60;99.90
52044;DHT22;38053;53.100;6.078;2023-08-30T05:57:12;13.70;99.90
52044;DHT22;38053;53.100;6.078;2023-08-30T05:59:37;13.70;99.90
52044;DHT22;38053;53.100;6.078;2023-08-30T06:02:03;13.70;99.90
52044;DHT22;38053;53.100;6.078;2023-08-30T06:04:30;13.70;99.90
52044;DHT22;38053;53.100;6.078;2023-08-30T06:06:55;13.80;99.90
52044;DHT22;38053;53.100;6.078;2023-08-30T06:09:21;13.80;99.90
52044;DHT22;38053;53.100;6.078;2023-08-30T06:11:47;13.80;99.90
52044;DHT22;38053;53.100;6.078;2023-08-30T06:14:12;13.90;99.90
52044;DHT22;38053;53.100;6.078;2023-08-30T06:16:38;13.90;99.90
52044;DHT22;38053;53.100;6.078;2023-08-30T06:19:09;13.90;99.90
52044;DHT22;38053;53.100;6.078;2023-08-30T06:21:35;13.90;99.90
52044;DHT22;38053;53.100;6.078;2023-08-30T06:24:01;13.90;99.90
52044;DHT22;38053;53.100;6.078;2023-08-30T06:26:26;13.90;99.90
52044;DHT22;38053;53.100;6.078;2023-08-30T06:28:52;13.90;99.90
52044;DHT22;38053;53.100;6.078;2023-08-30T06:31:18;13.90;99.90
52044;DHT22;38053;53.100;6.078;2023-08-30T06:33:44;14.00;99.90
52044;DHT22;38053;53.100;6.078;2023-08-30T06:36:09;14.00;99.90
52044;DHT22;38053;53.100;6.078;2023-08-30T06:38:37;14.10;99.90
52044;DHT22;38053;53.100;6.078;2023-08-30T06:41:03;14.10;99.90
52044;DHT22;38053;53.100;6.078;2023-08-30T06:43:28;14.10;99.90
52044;DHT22;38053;53.100;6.078;2023-08-30T06:45:57;14.30;99.90
52044;DHT22;38053;53.100;6.078;2023-08-30T06:48:24;14.30;99.90
52044;DHT22;38053;53.100;6.078;2023-08-30T06:50:49;14.30;99.90
52044;DHT22;38053;53.100;6.078;2023-08-30T06:53:15;14.40;99.90
52044;DHT22;38053;53.100;6.078;2023-08-30T06:55:41;14.50;99.90
52044;DHT22;38053;53.100;6.078;2023-08-30T06:58:07;14.60;99.90
52044;DHT22;38053;53.100;6.078;2023-08-30T07:00:32;14.70;99.90
52044;DHT22;38053;53.100;6.078;2023-08-30T07:02:58;14.80;99.90
52044;DHT22;38053;53.100;6.078;2023-08-30T07:05:24;14.90;99.90
52044;DHT22;38053;53.100;6.078;2023-08-30T07:07:50;15.00;99.90
52044;DHT22;38053;53.100;6.078;2023-08-30T07:10:15;15.10;99.90
52044;DHT22;38053;53.100;6.078;2023-08-30T07:12:41;15.20;99.90
52044;DHT22;38053;53.100;6.078;2023-08-30T07:15:07;15.30;99.90
52044;DHT22;38053;53.100;6.078;2023-08-30T07:17:33;15.40;99.90
52044;DHT22;38053;53.100;6.078;2023-08-30T07:19:59;15.50;99.90
52044;DHT22;38053;53.100;6.078;2023-08-30T07:22:25;15.60;99.90
52044;DHT22;38053;53.100;6.078;2023-08-30T07:24:50;15.70;99.90
52044;DHT22;38053;53.100;6.078;2023-08-30T07:27:16;15.80;99.90
52044;DHT22;38053;53.100;6.078;2023-08-30T07:29:42;15.80;99.90
52044;DHT22;38053;53.100;6.078;2023-08-30T07:32:09;15.90;99.90
52044;DHT22;38053;53.100;6.078;2023-08-30T07:34:35;15.90;99.90
52044;DHT22;38053;53.100;6.078;2023-08-30T07:37:01;16.00;99.90
52044;DHT22;38053;53.100;6.078;2023-08-30T07:39:27;16.00;99.90
52044;DHT22;38053;53.100;6.078;2023-08-30T07:41:53;16.00;99.90
52044;DHT22;38053;53.100;6.078;2023-08-30T07:44:19;16.10;99.90
52044;DHT22;38053;53.100;6.078;2023-08-30T07:46:46;16.10;99.90
52044;DHT22;38053;53.100;6.078;2023-08-30T07:49:11;16.20;99.90
52044;DHT22;38053;53.100;6.078;2023-08-30T07:51:37;16.20;99.90
52044;DHT22;38053;53.100;6.078;2023-08-30T07:54:03;16.30;99.90
52044;DHT22;38053;53.100;6.078;2023-08-30T07:56:29;16.30;99.90
52044;DHT22;38053;53.100;6.078;2023-08-30T07:58:54;16.30;99.90
52044;DHT22;38053;53.100;6.078;2023-08-30T08:01:20;16.30;99.90
52044;DHT22;38053;53.100;6.078;2023-08-30T08:03:49;16.30;99.90
52044;DHT22;38053;53.100;6.078;2023-08-30T08:06:14;16.20;99.90
52044;DHT22;38053;53.100;6.078;2023-08-30T08:08:40;16.10;99.90
52044;DHT22;38053;53.100;6.078;2023-08-30T08:11:06;16.10;99.90
52044;DHT22;38053;53.100;6.078;2023-08-30T08:13:32;16.00;99.90
52044;DHT22;38053;53.100;6.078;2023-08-30T08:15:57;16.10;99.90
52044;DHT22;38053;53.100;6.078;2023-08-30T08:18:23;16.20;99.90
52044;DHT22;38053;53.100;6.078;2023-08-30T08:20:50;16.20;99.90
52044;DHT22;38053;53.100;6.078;2023-08-30T08:23:15;16.30;99.90
52044;DHT22;38053;53.100;6.078;2023-08-30T08:25:41;16.30;99.90
52044;DHT22;38053;53.100;6.078;2023-08-30T08:28:07;16.30;99.90
52044;DHT22;38053;53.100;6.078;2023-08-30T08:30:33;16.40;99.90
52044;DHT22;38053;53.100;6.078;2023-08-30T08:32:58;16.40;99.90
52044;DHT22;38053;53.100;6.078;2023-08-30T08:35:25;16.30;99.90
52044;DHT22;38053;53.100;6.078;2023-08-30T08:37:50;16.30;99.90
52044;DHT22;38053;53.100;6.078;2023-08-30T08:40:16;16.30;99.90
52044;DHT22;38053;53.100;6.078;2023-08-30T08:42:43;16.30;99.90
52044;DHT22;38053;53.100;6.078;2023-08-30T08:45:10;16.30;99.90
52044;DHT22;38053;53.100;6.078;2023-08-30T08:47:37;16.30;99.90
52044;DHT22;38053;53.100;6.078;2023-08-30T08:50:04;16.30;99.90
52044;DHT22;38053;53.100;6.078;2023-08-30T08:52:30;16.20;99.90
52044;DHT22;38053;53.100;6.078;2023-08-30T08:54:56;16.30;99.90
52044;DHT22;38053;53.100;6.078;2023-08-30T08:57:22;16.30;99.90
52044;DHT22;38053;53.100;6.078;2023-08-30T08:59:48;16.40;99.90
52044;DHT22;38053;53.100;6.078;2023-08-30T09:02:16;16.40;99.90
52044;DHT22;38053;53.100;6.078;2023-08-30T09:04:42;16.40;99.90
52044;DHT22;38053;53.100;6.078;2023-08-30T09:07:07;16.40;99.90
52044;DHT22;38053;53.100;6.078;2023-08-30T09:09:34;16.50;99.90
52044;DHT22;38053;53.100;6.078;2023-08-30T09:12:00;16.40;99.90
52044;DHT22;38053;53.100;6.078;2023-08-30T09:14:26;16.40;99.90
52044;DHT22;38053;53.100;6.078;2023-08-30T09:19:21;16.50;99.90
52044;DHT22;38053;53.100;6.078;2023-08-30T09:22:05;16.50;99.90
52044;DHT22;38053;53.100;6.078;2023-08-30T09:24:40;16.50;99.90
52044;DHT22;38053;53.100;6.078;2023-08-30T09:27:06;16.40;99.90
52044;DHT22;38053;53.100;6.078;2023-08-30T09:29:32;16.40;99.90
52044;DHT22;38053;53.100;6.078;2023-08-30T09:31:58;16.30;99.90
52044;DHT22;38053;53.100;6.078;2023-08-30T09:34:24;16.30;99.90
52044;DHT22;38053;53.100;6.078;2023-08-30T09:36:54;16.30;99.90
52044;DHT22;38053;53.100;6.078;2023-08-30T09:39:21;16.20;99.90
52044;DHT22;38053;53.100;6.078;2023-08-30T09:41:48;16.20;99.90
52044;DHT22;38053;53.100;6.078;2023-08-30T09:44:15;16.00;99.90
52044;DHT22;38053;53.100;6.078;2023-08-30T09:46:59;16.00;99.90
52044;DHT22;38053;53.100;6.078;2023-08-30T09:49:26;15.80;99.90
52044;DHT22;38053;53.100;6.078;2023-08-30T09:51:53;15.80;99.90
52044;DHT22;38053;53.100;6.078;2023-08-30T09:54:21;15.80;99.90
52044;DHT22;38053;53.100;6.078;2023-08-30T09:56:47;15.70;99.90
52044;DHT22;38053;53.100;6.078;2023-08-30T09:59:14;15.70;99.90
52044;DHT22;38053;53.100;6.078;2023-08-30T10:01:42;15.70;99.90
52044;DHT22;38053;53.100;6.078;2023-08-30T10:04:09;15.80;99.90
52044;DHT22;38053;53.100;6.078;2023-08-30T10:06:39;15.80;99.90
52044;DHT22;38053;53.100;6.078;2023-08-30T10:09:06;15.80;99.90
52044;DHT22;38053;53.100;6.078;2023-08-30T10:11:34;15.90;99.90
52044;DHT22;38053;53.100;6.078;2023-08-30T10:14:03;15.90;99.90
52044;DHT22;38053;53.100;6.078;2023-08-30T10:16:44;16.00;99.90
52044;DHT22;38053;53.100;6.078;2023-08-30T10:21:47;16.10;99.90
52044;DHT22;38053;53.100;6.078;2023-08-30T10:24:16;16.20;99.90
52044;DHT22;38053;53.100;6.078;2023-08-30T10:26:44;16.20;99.90
52044;DHT22;38053;53.100;6.078;2023-08-30T10:29:13;16.30;99.90
52044;DHT22;38053;53.100;6.078;2023-08-30T10:31:40;16.40;99.90
52044;DHT22;38053;53.100;6.078;2023-08-30T10:34:16;16.40;99.90
52044;DHT22;38053;53.100;6.078;2023-08-30T10:36:43;16.50;99.90
52044;DHT22;38053;53.100;6.078;2023-08-30T10:39:13;16.70;99.90
52044;DHT22;38053;53.100;6.078;2023-08-30T10:41:54;16.80;99.90
52044;DHT22;38053;53.100;6.078;2023-08-30T10:44:22;16.90;99.90
52044;DHT22;38053;53.100;6.078;2023-08-30T10:46:53;17.10;99.90
52044;DHT22;38053;53.100;6.078;2023-08-30T10:49:20;17.20;99.90
52044;DHT22;38053;53.100;6.078;2023-08-30T10:51:54;17.40;99.90
52044;DHT22;38053;53.100;6.078;2023-08-30T10:54:21;17.50;99.90
52044;DHT22;38053;53.100;6.078;2023-08-30T10:56:55;17.60;99.90
52044;DHT22;38053;53.100;6.078;2023-08-30T10:59:23;17.70;99.90
52044;DHT22;38053;53.100;6.078;2023-08-30T11:01:50;17.70;99.90
52044;DHT22;38053;53.100;6.078;2023-08-30T11:04:18;17.80;99.90
52044;DHT22;38053;53.100;6.078;2023-08-30T11:06:45;17.90;99.90
52044;DHT22;38053;53.100;6.078;2023-08-30T11:09:15;17.80;99.90
52044;DHT22;38053;53.100;6.078;2023-08-30T11:11:44;17.90;99.90
52044;DHT22;38053;53.100;6.078;2023-08-30T11:14:10;18.00;99.90
52044;DHT22;38053;53.100;6.078;2023-08-30T11:16:36;18.00;99.90
52044;DHT22;38053;53.100;6.078;2023-08-30T11:19:08;18.00;99.90
52044;DHT22;38053;53.100;6.078;2023-08-30T11:21:38;17.90;99.90
52044;DHT22;38053;53.100;6.078;2023-08-30T11:24:05;17.90;99.90
52044;DHT22;38053;53.100;6.078;2023-08-30T11:26:31;17.80;99.90
52044;DHT22;38053;53.100;6.078;2023-08-30T11:28:57;17.70;99.90
52044;DHT22;38053;53.100;6.078;2023-08-30T11:31:26;17.50;99.90
52044;DHT22;38053;53.100;6.078;2023-08-30T11:33:54;17.40;99.90
52044;DHT22;38053;53.100;6.078;2023-08-30T11:36:23;17.30;99.90
52044;DHT22;38053;53.100;6.078;2023-08-30T11:38:54;17.30;99.90
52044;DHT22;38053;53.100;6.078;2023-08-30T11:41:20;17.20;99.90
52044;DHT22;38053;53.100;6.078;2023-08-30T11:43:53;17.20;99.90
52044;DHT22;38053;53.100;6.078;2023-08-30T11:46:20;17.20;99.90
52044;DHT22;38053;53.100;6.078;2023-08-30T11:48:48;17.20;99.90
52044;DHT22;38053;53.100;6.078;2023-08-30T11:51:15;17.30;99.90
52044;DHT22;38053;53.100;6.078;2023-08-30T11:53:41;17.30;99.90
52044;DHT22;38053;53.100;6.078;2023-08-30T11:56:08;17.30;99.90
52044;DHT22;38053;53.100;6.078;2023-08-30T11:58:35;17.30;99.90
52044;DHT22;38053;53.100;6.078;2023-08-30T12:01:01;17.30;99.90
52044;DHT22;38053;53.100;6.078;2023-08-30T12:03:28;17.20;99.90
52044;DHT22;38053;53.100;6.078;2023-08-30T12:05:55;17.20;99.90
52044;DHT22;38053;53.100;6.078;2023-08-30T12:08:25;17.10;99.90
52044;DHT22;38053;53.100;6.078;2023-08-30T12:10:52;17.10;99.90
52044;DHT22;38053;53.100;6.078;2023-08-30T12:15:57;16.90;99.90
52044;DHT22;38053;53.100;6.078;2023-08-30T12:18:23;16.70;99.90
52044;DHT22;38053;53.100;6.078;2023-08-30T12:23:26;16.60;99.90
52044;DHT22;38053;53.100;6.078;2023-08-30T12:26:03;16.50;99.90
52044;DHT22;38053;53.100;6.078;2023-08-30T12:28:31;16.40;99.90
52044;DHT22;38053;53.100;6.078;2023-08-30T12:30:57;16.30;99.90
52044;DHT22;38053;53.100;6.078;2023-08-30T12:33:23;16.30;99.90
52044;DHT22;38053;53.100;6.078;2023-08-30T12:35:53;16.30;99.90
52044;DHT22;38053;53.100;6.078;2023-08-30T12:38:19;16.20;99.90
52044;DHT22;38053;53.100;6.078;2023-08-30T12:40:47;16.20;99.90
52044;DHT22;38053;53.100;6.078;2023-08-30T12:43:13;16.10;99.90
52044;DHT22;38053;53.100;6.078;2023-08-30T12:45:40;16.00;99.90
52044;DHT22;38053;53.100;6.078;2023-08-30T12:48:11;16.00;99.90
52044;DHT22;38053;53.100;6.078;2023-08-30T12:50:38;16.00;99.90
52044;DHT22;38053;53.100;6.078;2023-08-30T12:53:04;16.00;99.90
52044;DHT22;38053;53.100;6.078;2023-08-30T12:55:30;16.00;99.90
52044;DHT22;38053;53.100;6.078;2023-08-30T12:57:56;16.00;99.90
52044;DHT22;38053;53.100;6.078;2023-08-30T13:00:23;16.00;99.90
52044;DHT22;38053;53.100;6.078;2023-08-30T13:02:49;16.00;99.90
52044;DHT22;38053;53.100;6.078;2023-08-30T13:05:15;16.00;99.90
52044;DHT22;38053;53.100;6.078;2023-08-30T13:07:41;15.90;99.90
52044;DHT22;38053;53.100;6.078;2023-08-30T13:10:08;15.90;99.90
52044;DHT22;38053;53.100;6.078;2023-08-30T13:12:34;15.80;99.90
52044;DHT22;38053;53.100;6.078;2023-08-30T13:14:59;15.80;99.90
52044;DHT22;38053;53.100;6.078;2023-08-30T13:17:25;15.90;99.90
52044;DHT22;38053;53.100;6.078;2023-08-30T13:19:51;16.00;99.90
52044;DHT22;38053;53.100;6.078;2023-08-30T13:22:16;16.00;99.90
52044;DHT22;38053;53.100;6.078;2023-08-30T13:24:44;16.10;99.90
52044;DHT22;38053;53.100;6.078;2023-08-30T13:27:09;16.00;99.90
52044;DHT22;38053;53.100;6.078;2023-08-30T13:29:36;16.00;99.90
52044;DHT22;38053;53.100;6.078;2023-08-30T13:32:01;16.00;99.90
52044;DHT22;38053;53.100;6.078;2023-08-30T13:34:27;15.90;99.90
52044;DHT22;38053;53.100;6.078;2023-08-30T13:36:53;15.80;99.90
52044;DHT22;38053;53.100;6.078;2023-08-30T13:39:18;15.80;99.90
52044;DHT22;38053;53.100;6.078;2023-08-30T13:41:46;15.70;99.90
52044;DHT22;38053;53.100;6.078;2023-08-30T13:44:13;15.70;99.90
52044;DHT22;38053;53.100;6.078;2023-08-30T13:46:42;15.60;99.90
52044;DHT22;38053;53.100;6.078;2023-08-30T13:49:08;15.60;99.90
52044;DHT22;38053;53.100;6.078;2023-08-30T13:51:34;15.50;99.90
52044;DHT22;38053;53.100;6.078;2023-08-30T13:54:00;15.40;99.90
52044;DHT22;38053;53.100;6.078;2023-08-30T13:56:25;15.30;99.90
52044;DHT22;38053;53.100;6.078;2023-08-30T13:58:51;15.30;99.90
52044;DHT22;38053;53.100;6.078;2023-08-30T14:01:17;15.40;99.90
52044;DHT22;38053;53.100;6.078;2023-08-30T14:03:43;15.40;99.90
52044;DHT22;38053;53.100;6.078;2023-08-30T14:06:09;15.40;99.90
52044;DHT22;38053;53.100;6.078;2023-08-30T14:08:35;15.50;99.90
52044;DHT22;38053;53.100;6.078;2023-08-30T14:11:01;15.60;99.90
52044;DHT22;38053;53.100;6.078;2023-08-30T14:13:27;15.70;99.90
52044;DHT22;38053;53.100;6.078;2023-08-30T14:15:58;16.00;99.90
52044;DHT22;38053;53.100;6.078;2023-08-30T14:18:24;16.20;99.90
52044;DHT22;38053;53.100;6.078;2023-08-30T14:20:49;16.40;99.90
52044;DHT22;38053;53.100;6.078;2023-08-30T14:23:15;16.70;99.90
52044;DHT22;38053;53.100;6.078;2023-08-30T14:25:41;17.00;99.90
52044;DHT22;38053;53.100;6.078;2023-08-30T14:28:06;17.10;99.90
52044;DHT22;38053;53.100;6.078;2023-08-30T14:30:32;17.20;99.90
52044;DHT22;38053;53.100;6.078;2023-08-30T14:32:58;17.20;99.90
52044;DHT22;38053;53.100;6.078;2023-08-30T14:35:23;17.30;99.90
52044;DHT22;38053;53.100;6.078;2023-08-30T14:37:50;17.30;99.90
52044;DHT22;38053;53.100;6.078;2023-08-30T14:40:16;17.30;99.90
52044;DHT22;38053;53.100;6.078;2023-08-30T14:42:42;17.20;99.90
52044;DHT22;38053;53.100;6.078;2023-08-30T14:45:08;17.00;99.90
52044;DHT22;38053;53.100;6.078;2023-08-30T14:47:34;16.90;99.90
52044;DHT22;38053;53.100;6.078;2023-08-30T14:50:00;16.70;99.90
52044;DHT22;38053;53.100;6.078;2023-08-30T14:52:29;16.50;99.90
52044;DHT22;38053;53.100;6.078;2023-08-30T14:54:55;16.40;99.90
52044;DHT22;38053;53.100;6.078;2023-08-30T14:57:21;16.40;99.90
52044;DHT22;38053;53.100;6.078;2023-08-30T14:59:47;16.30;99.90
52044;DHT22;38053;53.100;6.078;2023-08-30T15:02:13;16.30;99.90
52044;DHT22;38053;53.100;6.078;2023-08-30T15:04:40;16.30;99.90
52044;DHT22;38053;53.100;6.078;2023-08-30T15:07:06;16.30;99.90
52044;DHT22;38053;53.100;6.078;2023-08-30T15:09:31;16.50;99.90
52044;DHT22;38053;53.100;6.078;2023-08-30T15:11:57;16.80;99.90
52044;DHT22;38053;53.100;6.078;2023-08-30T15:14:25;17.10;99.90
52044;DHT22;38053;53.100;6.078;2023-08-30T15:16:51;17.40;99.90
52044;DHT22;38053;53.100;6.078;2023-08-30T15:19:17;17.40;99.90
52044;DHT22;38053;53.100;6.078;2023-08-30T15:21:43;17.30;99.90
52044;DHT22;38053;53.100;6.078;2023-08-30T15:24:08;17.10;99.90
52044;DHT22;38053;53.100;6.078;2023-08-30T15:26:34;17.10;99.90
52044;DHT22;38053;53.100;6.078;2023-08-30T15:29:00;17.10;99.90
52044;DHT22;38053;53.100;6.078;2023-08-30T15:31:26;17.20;99.90
52044;DHT22;38053;53.100;6.078;2023-08-30T15:33:51;17.50;99.90
52044;DHT22;38053;53.100;6.078;2023-08-30T15:36:17;17.70;99.90
52044;DHT22;38053;53.100;6.078;2023-08-30T15:38:43;17.70;99.90
52044;DHT22;38053;53.100;6.078;2023-08-30T15:41:11;17.80;99.90
52044;DHT22;38053;53.100;6.078;2023-08-30T15:43:41;17.80;99.90